createdAt,value
2022-10-22T00:00:08.920Z,11.85
2022-10-22T00:01:09.968Z,11.98
2022-10-22T00:01:49.925Z,12.54
2022-10-22T00:02:30.066Z,12.99
2022-10-22T00:03:10.937Z,12.94
2022-10-22T00:03:57.981Z,13.39
2022-10-22T00:04:54.439Z,13.77
2022-10-22T00:05:48.925Z,13.85
2022-10-22T00:06:42.920Z,13.75
2022-10-22T00:07:37.119Z,13.65
2022-10-22T00:08:32.011Z,13.44
2022-10-22T00:09:20.988Z,13.23
2022-10-22T00:09:55.058Z,12.99
2022-10-22T00:10:44.953Z,12.48
2022-10-22T00:11:24.986Z,12.19
2022-10-22T00:12:12.949Z,12.09
2022-10-22T00:12:46.964Z,11.89
2022-10-22T00:13:33.938Z,11.49
2022-10-22T00:14:07.999Z,11.45
2022-10-22T00:14:49.916Z,11.05
2022-10-22T00:15:43.913Z,11.19
2022-10-22T00:16:37.922Z,10.98
2022-10-22T00:17:31.930Z,11.05
2022-10-22T00:18:25.896Z,10.36
2022-10-22T00:19:19.909Z,10.36
2022-10-22T00:20:06.925Z,10.23
2022-10-22T00:20:41.018Z,10.44
2022-10-22T00:21:27.872Z,10.20
2022-10-22T00:22:05.609Z,10.02
2022-10-22T00:22:52.940Z,10.01
2022-10-22T00:23:26.972Z,9.95
2022-10-22T00:24:13.884Z,10.01
2022-10-22T00:24:47.947Z,9.90
2022-10-22T00:25:29.027Z,10.16
2022-10-22T00:26:08.948Z,9.66
2022-10-22T00:26:49.861Z,9.66
2022-10-22T00:27:29.962Z,9.71
2022-10-22T00:28:10.873Z,9.91
2022-10-22T00:28:50.994Z,10.01
2022-10-22T00:29:31.909Z,10.30
2022-10-22T00:30:13.019Z,9.93
2022-10-22T00:30:53.921Z,9.93
2022-10-22T00:31:34.125Z,10.32
2022-10-22T00:32:14.878Z,10.06
2022-10-22T00:32:54.962Z,10.04
2022-10-22T00:33:36.900Z,10.45
2022-10-22T00:34:18.020Z,10.34
2022-10-22T00:34:57.895Z,10.26
2022-10-22T00:35:37.990Z,10.11
2022-10-22T00:36:18.936Z,9.88
2022-10-22T00:36:59.936Z,9.90
2022-10-22T00:37:40.892Z,9.88
2022-10-22T00:38:21.984Z,10.31
2022-10-22T00:39:03.116Z,10.11
2022-10-22T00:39:43.164Z,9.68
2022-10-22T00:40:22.893Z,9.75
2022-10-22T00:41:05.027Z,9.88
2022-10-22T00:41:46.003Z,9.85
2022-10-22T00:42:37.838Z,9.86
2022-10-22T00:43:20.877Z,10.19
2022-10-22T00:44:08.126Z,9.99
2022-10-22T00:45:18.855Z,10.06
2022-10-22T00:45:58.973Z,10.10
2022-10-22T00:46:39.864Z,9.52
2022-10-22T00:47:22.136Z,9.46
2022-10-22T00:48:11.022Z,9.63
2022-10-22T00:48:58.875Z,9.56
2022-10-22T00:49:32.958Z,9.66
2022-10-22T00:50:25.873Z,9.96
2022-10-22T00:51:10.943Z,9.71
2022-10-22T00:51:57.880Z,9.59
2022-10-22T00:52:40.191Z,9.69
2022-10-22T00:53:50.858Z,9.45
2022-10-22T00:54:44.870Z,9.65
2022-10-22T00:55:40.885Z,9.71
2022-10-22T00:56:36.894Z,9.66
2022-10-22T00:57:31.889Z,9.70
2022-10-22T00:58:12.915Z,9.50
2022-10-22T00:59:01.052Z,9.73
2022-10-22T00:59:41.835Z,9.77
2022-10-22T01:00:22.922Z,9.80
2022-10-22T01:01:03.954Z,9.56
2022-10-22T01:01:45.224Z,9.40
2022-10-22T01:02:25.880Z,9.91
2022-10-22T01:03:07.975Z,9.82
2022-10-22T01:03:47.899Z,9.36
2022-10-22T01:04:27.924Z,9.51
2022-10-22T01:05:08.844Z,9.55
2022-10-22T01:06:10.933Z,9.68
2022-10-22T01:06:50.849Z,9.70
2022-10-22T01:07:31.978Z,9.73
2022-10-22T01:08:13.850Z,9.71
2022-10-22T01:09:19.890Z,10.02
2022-10-22T01:10:35.869Z,9.88
2022-10-22T01:11:40.912Z,9.73
2022-10-22T01:12:56.861Z,9.69
2022-10-22T01:14:32.959Z,9.60
2022-10-22T01:15:45.864Z,9.82
2022-10-22T01:17:13.904Z,9.40
2022-10-22T01:18:50.008Z,9.20
2022-10-22T01:20:10.851Z,9.56
2022-10-22T01:21:44.878Z,9.15
2022-10-22T01:22:45.870Z,9.07
2022-10-22T01:24:16.816Z,9.21
2022-10-22T01:25:49.924Z,9.23
2022-10-22T01:27:17.905Z,9.43
2022-10-22T01:28:46.880Z,9.20
2022-10-22T01:29:53.024Z,9.04
2022-10-22T01:30:47.821Z,8.90
2022-10-22T01:31:28.841Z,9.11
2022-10-22T01:32:17.885Z,9.29
2022-10-22T01:33:08.817Z,9.50
2022-10-22T01:33:50.885Z,9.46
2022-10-22T01:34:32.822Z,9.14
2022-10-22T01:35:19.934Z,9.25
2022-10-22T01:36:00.861Z,9.35
2022-10-22T01:36:42.907Z,9.21
2022-10-22T01:37:24.832Z,9.13
2022-10-22T01:38:08.861Z,9.23
2022-10-22T01:38:49.792Z,9.38
2022-10-22T01:39:30.934Z,8.86
2022-10-22T01:40:12.830Z,9.16
2022-10-22T01:40:53.908Z,9.10
2022-10-22T01:41:35.832Z,8.74
2022-10-22T01:42:15.962Z,8.77
2022-10-22T01:43:22.837Z,9.35
2022-10-22T01:44:02.885Z,9.15
2022-10-22T01:44:43.803Z,9.14
2022-10-22T01:45:23.890Z,9.04
2022-10-22T01:46:08.783Z,8.66
2022-10-22T01:46:55.849Z,8.89
2022-10-22T01:47:57.825Z,9.46
2022-10-22T01:49:36.805Z,9.20
2022-10-22T01:50:45.812Z,8.73
2022-10-22T01:52:36.824Z,8.45
2022-10-22T01:54:12.812Z,8.68
2022-10-22T01:55:30.790Z,8.70
2022-10-22T01:57:05.801Z,8.81
2022-10-22T01:58:09.811Z,8.73
2022-10-22T01:59:20.836Z,8.71
2022-10-22T02:00:17.793Z,8.61
2022-10-22T02:01:00.934Z,8.75
2022-10-22T02:01:48.789Z,8.80
2022-10-22T02:03:02.848Z,8.74
2022-10-22T02:03:54.833Z,8.52
2022-10-22T02:05:10.927Z,8.34
2022-10-22T02:06:00.773Z,8.44
2022-10-22T02:06:41.860Z,8.34
2022-10-22T02:07:27.794Z,8.59
2022-10-22T02:08:21.858Z,8.45
2022-10-22T02:09:02.926Z,8.48
2022-10-22T02:09:43.912Z,8.04
2022-10-22T02:10:24.788Z,7.79
2022-10-22T02:11:05.867Z,8.32
2022-10-22T02:11:47.772Z,8.36
2022-10-22T02:12:28.872Z,8.32
2022-10-22T02:13:09.781Z,8.50
2022-10-22T02:14:07.843Z,8.45
2022-10-22T02:15:02.807Z,8.31
2022-10-22T02:15:58.779Z,8.13
2022-10-22T02:16:57.766Z,8.45
2022-10-22T02:17:52.779Z,8.32
2022-10-22T02:18:48.781Z,8.34
2022-10-22T02:19:34.836Z,8.13
2022-10-22T02:20:38.872Z,8.32
2022-10-22T02:21:19.777Z,8.38
2022-10-22T02:22:00.841Z,8.43
2022-10-22T02:22:43.858Z,8.63
2022-10-22T02:23:23.838Z,8.69
2022-10-22T02:24:04.764Z,8.15
2022-10-22T02:24:51.796Z,8.29
2022-10-22T02:25:52.787Z,8.36
2022-10-22T02:26:53.773Z,8.30
2022-10-22T02:28:05.803Z,8.35
2022-10-22T02:29:26.788Z,8.19
2022-10-22T02:30:24.846Z,8.31
2022-10-22T02:31:03.840Z,8.19
2022-10-22T02:31:52.761Z,8.13
2022-10-22T02:32:29.873Z,8.40
2022-10-22T02:33:25.762Z,8.91
2022-10-22T02:34:04.914Z,8.69
2022-10-22T02:34:52.796Z,8.57
2022-10-22T02:35:36.804Z,8.39
2022-10-22T02:36:31.785Z,8.64
2022-10-22T02:37:25.745Z,8.76
2022-10-22T02:38:20.737Z,8.26
2022-10-22T02:40:10.770Z,8.88
2022-10-22T02:40:57.793Z,8.52
2022-10-22T02:41:31.868Z,8.32
2022-10-22T02:42:19.762Z,8.55
2022-10-22T02:42:55.909Z,8.61
2022-10-22T02:43:55.737Z,8.36
2022-10-22T02:44:29.877Z,8.54
2022-10-22T02:45:17.769Z,8.39
2022-10-22T02:45:52.872Z,8.51
2022-10-22T02:46:33.795Z,8.43
2022-10-22T02:47:13.845Z,8.35
2022-10-22T02:47:54.740Z,8.56
2022-10-22T02:48:34.863Z,8.30
2022-10-22T02:49:14.741Z,8.63
2022-10-22T02:49:56.834Z,8.51
2022-10-22T02:50:36.751Z,8.64
2022-10-22T02:51:16.833Z,8.61
2022-10-22T02:51:57.775Z,8.30
2022-10-22T02:52:38.302Z,8.40
2022-10-22T02:53:18.752Z,8.39
2022-10-22T02:53:58.912Z,8.44
2022-10-22T02:54:38.732Z,8.38
2022-10-22T02:55:18.841Z,8.23
2022-10-22T02:55:58.733Z,8.36
2022-10-22T02:56:38.803Z,8.41
2022-10-22T02:58:04.813Z,8.14
2022-10-22T02:58:44.744Z,8.49
2022-10-22T02:59:24.865Z,8.66
2022-10-22T03:00:04.762Z,8.61
2022-10-22T03:00:44.863Z,8.57
2022-10-22T03:01:24.749Z,8.52
2022-10-22T03:02:04.851Z,8.52
2022-10-22T03:02:45.752Z,8.81
2022-10-22T03:03:25.892Z,8.94
2022-10-22T03:04:05.714Z,8.51
2022-10-22T03:04:45.873Z,8.75
2022-10-22T03:05:25.737Z,8.61
2022-10-22T03:06:05.813Z,8.56
2022-10-22T03:06:49.737Z,8.59
2022-10-22T03:07:29.785Z,8.20
2022-10-22T03:08:10.744Z,8.48
2022-10-22T03:08:50.834Z,8.68
2022-10-22T03:09:30.723Z,8.26
2022-10-22T03:10:11.863Z,8.32
2022-10-22T03:10:52.734Z,8.48
2022-10-22T03:11:32.809Z,8.60
2022-10-22T03:12:14.740Z,8.57
2022-10-22T03:12:54.907Z,8.41
2022-10-22T03:13:35.768Z,8.55
2022-10-22T03:14:18.846Z,8.48
2022-10-22T03:14:58.742Z,8.48
2022-10-22T03:15:38.778Z,8.14
2022-10-22T03:16:18.740Z,8.36
2022-10-22T03:16:58.790Z,8.89
2022-10-22T03:17:39.004Z,8.70
2022-10-22T03:18:19.819Z,8.70
2022-10-22T03:19:00.758Z,8.68
2022-10-22T03:19:42.034Z,8.52
2022-10-22T03:20:21.727Z,8.66
2022-10-22T03:21:36.787Z,8.85
2022-10-22T03:22:22.762Z,8.70
2022-10-22T03:23:03.795Z,8.44
2022-10-22T03:23:44.704Z,8.38
2022-10-22T03:24:30.780Z,8.84
2022-10-22T03:25:08.012Z,8.84
2022-10-22T03:25:55.789Z,8.66
2022-10-22T03:26:30.839Z,8.63
2022-10-22T03:27:19.721Z,8.56
2022-10-22T03:27:53.796Z,8.18
2022-10-22T03:28:42.742Z,8.82
2022-10-22T03:29:17.755Z,8.90
2022-10-22T03:29:59.730Z,8.74
2022-10-22T03:30:39.784Z,8.88
2022-10-22T03:31:19.704Z,8.52
2022-10-22T03:32:00.800Z,8.50
2022-10-22T03:32:40.741Z,8.56
2022-10-22T03:33:20.807Z,8.64
2022-10-22T03:34:00.697Z,8.26
2022-10-22T03:34:43.791Z,8.76
2022-10-22T03:35:23.809Z,8.76
2022-10-22T03:36:03.780Z,8.52
2022-10-22T03:36:44.707Z,8.01
2022-10-22T03:37:25.804Z,8.06
2022-10-22T03:38:07.731Z,7.81
2022-10-22T03:38:47.765Z,8.04
2022-10-22T03:39:29.733Z,8.02
2022-10-22T03:40:11.809Z,7.82
2022-10-22T03:40:52.722Z,8.05
2022-10-22T03:41:33.770Z,8.10
2022-10-22T03:42:14.713Z,7.97
2022-10-22T03:42:54.756Z,7.94
2022-10-22T03:43:34.721Z,7.88
2022-10-22T03:44:14.789Z,8.26
2022-10-22T03:44:54.742Z,8.32
2022-10-22T03:45:48.692Z,7.95
2022-10-22T03:46:28.720Z,7.96
2022-10-22T03:47:08.821Z,8.07
2022-10-22T03:47:48.710Z,8.06
2022-10-22T03:48:28.780Z,8.25
2022-10-22T03:49:09.689Z,8.52
2022-10-22T03:49:49.761Z,8.46
2022-10-22T03:50:29.692Z,8.35
2022-10-22T03:51:10.427Z,8.46
2022-10-22T03:51:50.781Z,8.56
2022-10-22T03:52:30.753Z,8.36
2022-10-22T03:53:11.714Z,8.16
2022-10-22T03:53:51.770Z,8.27
2022-10-22T03:54:31.726Z,8.13
2022-10-22T03:55:13.784Z,8.00
2022-10-22T03:55:53.691Z,7.94
2022-10-22T03:56:33.766Z,7.76
2022-10-22T03:57:14.759Z,7.96
2022-10-22T03:57:54.797Z,7.72
2022-10-22T03:59:15.687Z,7.79
2022-10-22T03:59:58.847Z,8.21
2022-10-22T04:00:43.649Z,8.23
2022-10-22T04:01:27.085Z,8.02
2022-10-22T04:02:09.963Z,8.04
2022-10-22T04:02:52.086Z,8.14
2022-10-22T04:03:28.780Z,8.02
2022-10-22T04:04:15.676Z,8.18
2022-10-22T04:04:50.737Z,7.96
2022-10-22T04:05:40.695Z,7.94
2022-10-22T04:06:19.774Z,8.07
2022-10-22T04:07:06.705Z,7.90
2022-10-22T04:07:41.144Z,7.74
2022-10-22T04:08:22.705Z,7.88
2022-10-22T04:09:02.888Z,7.94
2022-10-22T04:09:43.704Z,7.99
2022-10-22T04:10:23.752Z,7.90
2022-10-22T04:11:03.676Z,7.94
2022-10-22T04:11:51.057Z,7.96
2022-10-22T04:12:30.665Z,7.95
2022-10-22T04:13:13.904Z,7.49
2022-10-22T04:13:53.777Z,7.66
2022-10-22T04:14:33.805Z,7.89
2022-10-22T04:15:14.650Z,7.49
2022-10-22T04:15:54.741Z,7.32
2022-10-22T04:16:37.761Z,7.68
2022-10-22T04:17:17.814Z,7.82
2022-10-22T04:17:57.668Z,8.02
2022-10-22T04:18:37.808Z,7.99
2022-10-22T04:19:18.714Z,7.79
2022-10-22T04:19:58.729Z,7.79
2022-10-22T04:20:38.656Z,7.70
2022-10-22T04:21:20.720Z,7.75
2022-10-22T04:22:00.669Z,7.56
2022-10-22T04:22:43.034Z,7.65
2022-10-22T04:23:23.683Z,7.65
2022-10-22T04:24:03.727Z,7.61
2022-10-22T04:24:44.764Z,7.80
2022-10-22T04:25:24.754Z,7.60
2022-10-22T04:26:11.658Z,7.34
2022-10-22T04:26:51.760Z,7.69
2022-10-22T04:27:31.648Z,7.59
2022-10-22T04:28:16.745Z,7.01
2022-10-22T04:28:58.665Z,7.25
2022-10-22T04:29:38.760Z,7.31
2022-10-22T04:30:19.688Z,7.46
2022-10-22T04:31:04.512Z,7.78
2022-10-22T04:31:44.649Z,7.50
2022-10-22T04:32:24.717Z,7.84
2022-10-22T04:33:04.669Z,7.91
2022-10-22T04:33:44.739Z,8.24
2022-10-22T04:34:25.650Z,8.31
2022-10-22T04:35:11.807Z,8.23
2022-10-22T04:35:51.779Z,8.41
2022-10-22T04:36:52.704Z,8.59
2022-10-22T04:38:26.728Z,8.14
2022-10-22T04:39:11.717Z,8.74
2022-10-22T04:39:57.284Z,8.93
2022-10-22T04:40:38.628Z,8.57
2022-10-22T04:41:21.664Z,8.45
2022-10-22T04:41:56.182Z,8.32
2022-10-22T04:42:43.653Z,8.20
2022-10-22T04:43:20.681Z,7.99
2022-10-22T04:44:11.060Z,7.99
2022-10-22T04:44:53.728Z,8.21
2022-10-22T04:45:41.643Z,8.10
2022-10-22T04:46:16.733Z,8.15
2022-10-22T04:46:56.661Z,8.01
2022-10-22T04:47:44.342Z,8.25
2022-10-22T04:48:24.654Z,8.38
2022-10-22T04:49:05.785Z,8.14
2022-10-22T04:49:46.636Z,7.85
2022-10-22T04:50:26.774Z,8.16
2022-10-22T04:51:07.654Z,8.14
2022-10-22T04:51:47.734Z,7.96
2022-10-22T04:52:27.663Z,8.05
2022-10-22T04:53:07.714Z,8.23
2022-10-22T04:53:47.639Z,8.29
2022-10-22T04:54:30.514Z,8.27
2022-10-22T04:55:13.638Z,8.46
2022-10-22T04:55:53.718Z,8.49
2022-10-22T04:56:37.752Z,8.61
2022-10-22T04:57:31.669Z,8.63
2022-10-22T04:58:12.371Z,8.44
2022-10-22T04:59:07.632Z,8.26
2022-10-22T04:59:41.321Z,8.52
2022-10-22T05:00:29.649Z,8.65
2022-10-22T05:01:14.881Z,8.74
2022-10-22T05:02:01.654Z,8.46
2022-10-22T05:02:41.681Z,8.70
2022-10-22T05:03:21.707Z,8.90
2022-10-22T05:04:04.630Z,8.71
2022-10-22T05:04:44.685Z,8.57
2022-10-22T05:05:24.626Z,8.04
2022-10-22T05:06:08.806Z,7.82
2022-10-22T05:06:48.620Z,8.04
2022-10-22T05:07:28.666Z,7.75
2022-10-22T05:08:08.661Z,7.81
2022-10-22T05:08:48.788Z,7.91
2022-10-22T05:09:28.634Z,7.78
2022-10-22T05:10:09.697Z,7.74
2022-10-22T05:10:49.609Z,7.38
2022-10-22T05:11:33.995Z,7.47
2022-10-22T05:12:14.626Z,7.74
2022-10-22T05:12:54.688Z,7.40
2022-10-22T05:13:34.674Z,7.50
2022-10-22T05:14:15.701Z,8.01
2022-10-22T05:14:55.617Z,7.82
2022-10-22T05:15:36.760Z,8.02
2022-10-22T05:16:17.628Z,7.81
2022-10-22T05:16:59.693Z,7.85
2022-10-22T05:17:43.682Z,7.69
2022-10-22T05:18:23.699Z,7.70
2022-10-22T05:19:06.632Z,7.55
2022-10-22T05:19:46.683Z,7.55
2022-10-22T05:20:26.600Z,7.72
2022-10-22T05:21:07.688Z,7.79
2022-10-22T05:21:47.630Z,8.06
2022-10-22T05:22:27.780Z,7.79
2022-10-22T05:23:07.635Z,7.96
2022-10-22T05:23:48.817Z,7.60
2022-10-22T05:24:29.640Z,7.65
2022-10-22T05:25:12.150Z,7.69
2022-10-22T05:25:52.616Z,7.40
2022-10-22T05:26:35.658Z,7.43
2022-10-22T05:27:15.645Z,7.46
2022-10-22T05:27:58.406Z,7.54
2022-10-22T05:28:41.770Z,7.50
2022-10-22T05:29:21.753Z,7.51
2022-10-22T05:30:01.634Z,7.59
2022-10-22T05:30:41.679Z,7.53
2022-10-22T05:31:22.607Z,7.59
2022-10-22T05:32:03.669Z,7.54
2022-10-22T05:32:43.589Z,7.66
2022-10-22T05:33:24.197Z,7.55
2022-10-22T05:34:04.579Z,7.57
2022-10-22T05:34:44.665Z,7.84
2022-10-22T05:35:24.818Z,7.65
2022-10-22T05:36:05.712Z,7.64
2022-10-22T05:36:46.597Z,7.66
2022-10-22T05:37:27.739Z,7.81
2022-10-22T05:38:07.584Z,7.69
2022-10-22T05:38:47.685Z,8.14
2022-10-22T05:39:27.587Z,7.88
2022-10-22T05:40:19.162Z,8.05
2022-10-22T05:41:11.701Z,8.29
2022-10-22T05:41:53.961Z,8.20
2022-10-22T05:42:39.949Z,8.46
2022-10-22T05:43:20.720Z,8.51
2022-10-22T05:44:05.589Z,8.60
2022-10-22T05:44:45.668Z,8.57
2022-10-22T05:45:25.583Z,8.64
2022-10-22T05:46:23.069Z,8.65
2022-10-22T05:46:57.294Z,8.76
2022-10-22T05:47:45.594Z,8.66
2022-10-22T05:48:19.362Z,9.16
2022-10-22T05:49:17.597Z,9.09
2022-10-22T05:50:03.364Z,9.09
2022-10-22T05:50:58.761Z,9.75
2022-10-22T05:51:46.562Z,9.65
2022-10-22T05:52:27.634Z,9.48
2022-10-22T05:53:07.620Z,9.48
2022-10-22T05:53:49.629Z,9.25
2022-10-22T05:54:29.593Z,9.00
2022-10-22T05:55:10.682Z,8.65
2022-10-22T05:55:51.597Z,8.44
2022-10-22T05:56:33.704Z,8.99
2022-10-22T05:57:14.601Z,8.93
2022-10-22T05:57:54.703Z,8.50
2022-10-22T05:58:34.555Z,8.10
2022-10-22T05:59:17.696Z,8.01
2022-10-22T05:59:57.561Z,8.06
2022-10-22T06:00:37.738Z,8.39
2022-10-22T06:01:36.576Z,8.32
2022-10-22T06:02:26.650Z,8.38
2022-10-22T06:03:00.545Z,8.45
2022-10-22T06:03:51.315Z,8.35
2022-10-22T06:04:25.300Z,8.60
2022-10-22T06:05:14.630Z,8.69
2022-10-22T06:05:48.296Z,8.24
2022-10-22T06:07:02.574Z,7.95
2022-10-22T06:07:42.689Z,8.11
2022-10-22T06:08:22.639Z,8.05
2022-10-22T06:09:03.662Z,8.04
2022-10-22T06:09:43.663Z,7.91
2022-10-22T06:10:27.629Z,8.16
2022-10-22T06:11:07.612Z,8.19
2022-10-22T06:11:47.555Z,8.20
2022-10-22T06:12:30.674Z,8.54
2022-10-22T06:13:14.581Z,8.45
2022-10-22T06:13:58.686Z,8.02
2022-10-22T06:14:39.586Z,8.04
2022-10-22T06:15:21.692Z,7.94
2022-10-22T06:16:01.593Z,7.69
2022-10-22T06:16:41.690Z,8.07
2022-10-22T06:17:22.569Z,8.36
2022-10-22T06:18:02.628Z,7.96
2022-10-22T06:18:42.569Z,7.78
2022-10-22T06:19:32.210Z,7.69
2022-10-22T06:20:13.571Z,7.84
2022-10-22T06:20:53.671Z,7.94
2022-10-22T06:21:33.582Z,8.20
2022-10-22T06:22:14.618Z,8.39
2022-10-22T06:22:54.540Z,8.06
2022-10-22T06:23:34.644Z,8.44
2022-10-22T06:24:15.578Z,8.54
2022-10-22T06:24:55.697Z,8.60
2022-10-22T06:25:35.565Z,8.32
2022-10-22T06:26:17.823Z,8.36
2022-10-22T06:26:58.574Z,8.65
2022-10-22T06:27:39.623Z,8.05
2022-10-22T06:28:19.609Z,7.95
2022-10-22T06:29:00.658Z,7.99
2022-10-22T06:29:40.576Z,7.94
2022-10-22T06:30:27.828Z,8.41
2022-10-22T06:31:09.545Z,8.52
2022-10-22T06:31:49.596Z,8.35
2022-10-22T06:32:29.556Z,8.24
2022-10-22T06:33:09.634Z,8.45
2022-10-22T06:33:50.586Z,8.32
2022-10-22T06:34:33.414Z,8.35
2022-10-22T06:35:14.597Z,7.96
2022-10-22T06:35:54.685Z,7.90
2022-10-22T06:36:34.594Z,7.94
2022-10-22T06:37:16.673Z,7.94
2022-10-22T06:37:56.533Z,7.68
2022-10-22T06:38:36.585Z,8.00
2022-10-22T06:39:20.537Z,8.66
2022-10-22T06:40:00.605Z,8.40
2022-10-22T06:40:40.627Z,7.93
2022-10-22T06:41:25.587Z,8.30
2022-10-22T06:42:09.548Z,8.20
2022-10-22T06:42:49.606Z,7.80
2022-10-22T06:43:29.546Z,8.15
2022-10-22T06:44:09.614Z,8.55
2022-10-22T06:44:49.586Z,8.11
2022-10-22T06:45:29.580Z,8.32
2022-10-22T06:46:16.076Z,8.30
2022-10-22T06:46:59.925Z,8.32
2022-10-22T06:47:43.097Z,8.36
2022-10-22T06:48:23.612Z,8.56
2022-10-22T06:49:09.549Z,8.09
2022-10-22T06:49:50.029Z,8.21
2022-10-22T06:50:30.516Z,8.36
2022-10-22T06:51:20.549Z,8.50
2022-10-22T06:51:54.431Z,8.85
2022-10-22T06:52:41.568Z,8.75
2022-10-22T06:53:15.305Z,8.69
2022-10-22T06:54:03.538Z,8.81
2022-10-22T06:54:37.304Z,8.60
2022-10-22T06:55:25.521Z,8.18
2022-10-22T06:55:59.312Z,8.27
2022-10-22T06:56:40.566Z,8.30
2022-10-22T06:57:14.578Z,8.51
2022-10-22T06:57:48.218Z,8.26
2022-10-22T06:58:28.536Z,7.89
2022-10-22T06:59:03.617Z,7.96
2022-10-22T06:59:37.558Z,8.35
2022-10-22T07:00:18.644Z,8.46
2022-10-22T07:00:52.609Z,8.54
2022-10-22T07:01:33.280Z,8.56
2022-10-22T07:02:15.581Z,8.40
2022-10-22T07:02:49.596Z,8.38
2022-10-22T07:03:23.274Z,8.75
2022-10-22T07:04:04.491Z,8.84
2022-10-22T07:04:38.570Z,8.49
2022-10-22T07:05:13.229Z,8.90
2022-10-22T07:05:53.509Z,9.24
2022-10-22T07:06:29.631Z,8.99
2022-10-22T07:07:03.363Z,8.86
2022-10-22T07:07:43.525Z,8.98
2022-10-22T07:08:17.619Z,9.49
2022-10-22T07:08:51.851Z,9.49
2022-10-22T07:09:31.512Z,9.64
2022-10-22T07:10:05.569Z,10.45
2022-10-22T07:10:39.383Z,10.27
2022-10-22T07:11:32.514Z,9.73
2022-10-22T07:12:06.593Z,9.51
2022-10-22T07:12:40.485Z,9.60
2022-10-22T07:13:23.597Z,9.57
2022-10-22T07:13:58.632Z,9.44
2022-10-22T07:14:32.399Z,10.23
2022-10-22T07:15:13.545Z,10.57
2022-10-22T07:15:47.577Z,10.31
2022-10-22T07:16:21.359Z,10.10
2022-10-22T07:17:02.507Z,10.19
2022-10-22T07:17:36.593Z,10.02
2022-10-22T07:18:10.227Z,10.31
2022-10-22T07:18:51.600Z,9.86
2022-10-22T07:19:25.679Z,9.95
2022-10-22T07:20:00.691Z,10.25
2022-10-22T07:20:41.518Z,10.59
2022-10-22T07:21:17.888Z,10.98
2022-10-22T07:21:52.248Z,10.77
2022-10-22T07:22:33.488Z,10.70
2022-10-22T07:23:07.629Z,10.04
2022-10-22T07:23:41.339Z,10.32
2022-10-22T07:24:22.525Z,10.86
2022-10-22T07:24:56.549Z,11.11
2022-10-22T07:25:30.286Z,10.68
2022-10-22T07:26:13.513Z,10.05
2022-10-22T07:26:49.212Z,9.88
2022-10-22T07:27:23.470Z,9.61
2022-10-22T07:28:03.489Z,9.46
2022-10-22T07:28:39.708Z,9.73
2022-10-22T07:29:15.394Z,9.81
2022-10-22T07:29:55.515Z,9.81
2022-10-22T07:30:29.585Z,10.00
2022-10-22T07:31:03.520Z,9.82
2022-10-22T07:31:43.562Z,10.16
2022-10-22T07:32:22.839Z,10.27
2022-10-22T07:32:59.858Z,9.90
2022-10-22T07:33:40.642Z,9.73
2022-10-22T07:34:14.678Z,9.85
2022-10-22T07:34:48.833Z,10.01
2022-10-22T07:35:40.603Z,10.00
2022-10-22T07:36:26.247Z,10.38
2022-10-22T07:37:00.326Z,10.07
2022-10-22T07:37:50.883Z,10.11
2022-10-22T07:38:24.581Z,10.13
2022-10-22T07:38:59.830Z,9.71
2022-10-22T07:39:39.507Z,9.79
2022-10-22T07:40:14.647Z,9.95
2022-10-22T07:40:56.611Z,9.74
2022-10-22T07:41:37.705Z,9.66
2022-10-22T07:42:18.565Z,9.71
2022-10-22T07:42:58.716Z,9.18
2022-10-22T07:43:41.758Z,9.44
2022-10-22T07:44:29.592Z,9.96
2022-10-22T07:45:19.319Z,10.59
2022-10-22T07:46:13.663Z,10.36
2022-10-22T07:46:50.688Z,10.19
2022-10-22T07:47:37.643Z,10.04
2022-10-22T07:48:15.614Z,9.88
2022-10-22T07:49:03.563Z,10.00
2022-10-22T07:49:37.294Z,10.00
2022-10-22T07:50:24.630Z,9.96
2022-10-22T07:50:58.413Z,9.99
2022-10-22T07:51:47.016Z,10.16
2022-10-22T07:52:20.652Z,10.27
2022-10-22T07:52:58.276Z,10.45
2022-10-22T07:53:49.583Z,10.32
2022-10-22T07:54:23.566Z,10.24
2022-10-22T07:54:57.181Z,10.60
2022-10-22T07:55:37.478Z,10.49
2022-10-22T07:56:12.653Z,10.06
2022-10-22T07:56:53.538Z,10.41
2022-10-22T07:57:33.697Z,10.74
2022-10-22T07:58:14.760Z,10.88
2022-10-22T07:58:55.752Z,11.01
2022-10-22T07:59:35.627Z,11.07
2022-10-22T08:00:25.186Z,11.54
2022-10-22T08:01:23.604Z,11.19
2022-10-22T08:03:39.518Z,11.38
2022-10-22T08:04:20.734Z,10.73
2022-10-22T08:06:53.565Z,10.95
2022-10-22T08:07:30.386Z,10.49
2022-10-22T08:08:04.421Z,10.32
2022-10-22T08:08:44.593Z,10.19
2022-10-22T08:09:18.541Z,10.40
2022-10-22T08:09:53.255Z,9.80
2022-10-22T08:10:36.492Z,10.21
2022-10-22T08:11:10.593Z,10.16
2022-10-22T08:11:46.295Z,9.61
2022-10-22T08:12:27.523Z,9.76
2022-10-22T08:13:01.542Z,9.99
2022-10-22T08:13:35.249Z,10.24
2022-10-22T08:14:15.476Z,10.51
2022-10-22T08:14:49.554Z,10.64
2022-10-22T08:15:25.490Z,10.76
2022-10-22T08:16:07.454Z,10.96
2022-10-22T08:16:44.546Z,10.89
2022-10-22T08:17:18.220Z,10.77
2022-10-22T08:18:00.552Z,10.30
2022-10-22T08:18:35.570Z,9.84
2022-10-22T08:19:10.251Z,9.74
2022-10-22T08:19:55.467Z,9.68
2022-10-22T08:20:29.602Z,9.82
2022-10-22T08:21:03.433Z,9.91
2022-10-22T08:21:45.500Z,9.63
2022-10-22T08:22:19.503Z,9.52
2022-10-22T08:22:56.281Z,9.74
2022-10-22T08:23:37.524Z,9.90
2022-10-22T08:24:13.588Z,9.57
2022-10-22T08:24:50.445Z,9.54
2022-10-22T08:25:33.495Z,9.59
2022-10-22T08:26:07.624Z,9.38
2022-10-22T08:26:49.151Z,9.82
2022-10-22T08:27:30.840Z,10.20
2022-10-22T08:28:32.876Z,9.76
2022-10-22T08:29:16.985Z,9.64
2022-10-22T08:29:57.453Z,9.25
2022-10-22T08:30:45.525Z,9.16
2022-10-22T08:31:39.528Z,9.07
2022-10-22T08:32:33.552Z,9.54
2022-10-22T08:33:29.630Z,9.91
2022-10-22T08:34:23.441Z,9.80
2022-10-22T08:35:18.681Z,9.70
2022-10-22T08:36:05.480Z,9.93
2022-10-22T08:36:39.529Z,9.98
2022-10-22T08:37:26.624Z,10.27
2022-10-22T08:38:01.528Z,10.34
2022-10-22T08:38:53.469Z,10.41
2022-10-22T08:39:27.653Z,10.34
2022-10-22T08:40:16.424Z,10.30
2022-10-22T08:40:55.569Z,10.29
2022-10-22T08:41:36.466Z,10.65
2022-10-22T08:43:08.636Z,10.31
2022-10-22T08:44:00.450Z,10.15
2022-10-22T08:45:29.478Z,10.15
2022-10-22T08:46:51.552Z,10.10
2022-10-22T08:48:01.478Z,10.35
2022-10-22T08:49:01.459Z,10.15
2022-10-22T08:49:45.522Z,9.82
2022-10-22T08:50:44.477Z,10.26
2022-10-22T08:51:34.579Z,10.48
2022-10-22T08:52:23.601Z,10.49
2022-10-22T08:53:05.557Z,10.45
2022-10-22T08:53:56.416Z,10.49
2022-10-22T08:55:13.608Z,10.75
2022-10-22T08:55:54.426Z,11.40
2022-10-22T08:56:35.534Z,11.82
2022-10-22T08:57:15.419Z,11.99
2022-10-22T08:58:12.486Z,11.30
2022-10-22T08:59:04.717Z,10.95
2022-10-22T08:59:59.438Z,9.96
2022-10-22T09:00:49.508Z,10.40
2022-10-22T09:01:44.443Z,10.25
2022-10-22T09:02:41.919Z,10.29
2022-10-22T09:04:03.441Z,10.36
2022-10-22T09:04:48.892Z,10.79
2022-10-22T09:06:12.442Z,10.76
2022-10-22T09:06:49.585Z,10.71
2022-10-22T09:07:39.866Z,10.73
2022-10-22T09:08:19.563Z,10.34
2022-10-22T09:09:08.469Z,10.26
2022-10-22T09:09:49.723Z,10.65
2022-10-22T09:10:41.656Z,10.56
2022-10-22T09:11:40.568Z,10.61
2022-10-22T09:12:29.587Z,10.49
2022-10-22T09:13:04.899Z,10.90
2022-10-22T09:13:55.527Z,10.70
2022-10-22T09:14:39.640Z,10.57
2022-10-22T09:15:34.438Z,11.15
2022-10-22T09:16:48.541Z,11.44
2022-10-22T09:17:59.441Z,11.54
2022-10-22T09:19:31.457Z,11.52
2022-10-22T09:20:33.415Z,11.40
2022-10-22T09:21:54.477Z,11.63
2022-10-22T09:22:42.408Z,11.64
2022-10-22T09:24:07.608Z,12.13
2022-10-22T09:24:56.395Z,11.95
2022-10-22T09:25:47.441Z,11.85
2022-10-22T09:26:42.784Z,12.31
2022-10-22T09:27:42.721Z,12.04
2022-10-22T09:28:37.413Z,11.15
2022-10-22T09:29:36.428Z,11.69
2022-10-22T09:30:41.401Z,11.34
2022-10-22T09:31:23.429Z,10.68
2022-10-22T09:32:03.514Z,10.27
2022-10-22T09:32:44.398Z,10.35
2022-10-22T09:33:35.483Z,9.94
2022-10-22T09:34:15.384Z,10.21
2022-10-22T09:34:56.442Z,10.34
2022-10-22T09:35:42.462Z,10.38
2022-10-22T09:36:34.533Z,10.10
2022-10-22T09:37:32.475Z,10.30
2022-10-22T09:38:29.447Z,10.27
2022-10-22T09:39:47.407Z,10.69
2022-10-22T09:40:41.456Z,11.59
2022-10-22T09:41:40.433Z,11.45
2022-10-22T09:42:35.441Z,10.57
2022-10-22T09:43:33.396Z,10.36
2022-10-22T09:44:27.404Z,10.65
2022-10-22T09:45:34.380Z,10.73
2022-10-22T09:46:35.699Z,11.19
2022-10-22T09:48:01.526Z,12.40
2022-10-22T09:48:46.478Z,12.54
2022-10-22T09:49:30.397Z,12.01
2022-10-22T09:50:33.489Z,11.26
2022-10-22T09:51:33.491Z,10.63
2022-10-22T09:52:32.480Z,10.76
2022-10-22T09:53:20.504Z,11.61
2022-10-22T09:54:08.427Z,11.84
2022-10-22T09:54:50.392Z,11.73
2022-10-22T09:55:32.471Z,12.05
2022-10-22T09:56:41.376Z,11.89
2022-10-22T09:57:27.511Z,11.88
2022-10-22T09:58:08.359Z,12.13
2022-10-22T09:58:55.385Z,12.23
2022-10-22T09:59:37.442Z,11.96
2022-10-22T10:00:26.372Z,11.93
2022-10-22T10:01:06.403Z,12.02